Terminal Aerodrome Forecast
Issued by NWS Grand Forks, ND

Home | Current Version | Previous Version | Text Only | Print | Product List | Glossary On
Versions: 1 2 3 4 5 6 7 8 9 10 11 12 13 14 15 16
000
FTUS43 KFGF 021900 AAA
TAFGFK
TAF AMD
KGFK 021956Z 0220/0318 17017G23KT P6SM SCT250
     FM030200 17016G23KT P6SM BKN080 OVC250
     FM030900 30015G22KT 2SM -SN OVC020
     FM031300 32023G30KT 4SM -SN OVC015=

USA.gov is the U.S. government's official web portal to all federal, state and local government web resources and services.